sensor_id;sensor_type;location;lat;lon;timestamp;temperature;humidity
70807;DHT22;58882;52.170;5.386;2022-10-16T00:00:40;18.00;58.30
70807;DHT22;58882;52.170;5.386;2022-10-16T00:03:08;18.00;58.30
70807;DHT22;58882;52.170;5.386;2022-10-16T00:05:42;18.00;58.30
70807;DHT22;58882;52.170;5.386;2022-10-16T00:08:10;17.90;58.10
70807;DHT22;58882;52.170;5.386;2022-10-16T00:10:37;18.00;58.30
70807;DHT22;58882;52.170;5.386;2022-10-16T00:13:04;17.90;58.30
70807;DHT22;58882;52.170;5.386;2022-10-16T00:15:36;17.90;58.30
70807;DHT22;58882;52.170;5.386;2022-10-16T00:18:04;17.90;58.20
70807;DHT22;58882;52.170;5.386;2022-10-16T00:20:34;17.90;58.30
70807;DHT22;58882;52.170;5.386;2022-10-16T00:23:01;17.80;58.30
70807;DHT22;58882;52.170;5.386;2022-10-16T00:25:28;17.90;58.40
70807;DHT22;58882;52.170;5.386;2022-10-16T00:27:54;17.80;58.30
70807;DHT22;58882;52.170;5.386;2022-10-16T00:30:21;17.90;59.40
70807;DHT22;58882;52.170;5.386;2022-10-16T00:32:48;17.80;58.40
70807;DHT22;58882;52.170;5.386;2022-10-16T00:35:15;17.80;58.40
70807;DHT22;58882;52.170;5.386;2022-10-16T00:37:41;17.80;58.40
70807;DHT22;58882;52.170;5.386;2022-10-16T00:40:08;17.80;58.30
70807;DHT22;58882;52.170;5.386;2022-10-16T00:42:35;17.80;58.40
70807;DHT22;58882;52.170;5.386;2022-10-16T00:45:03;17.80;58.50
70807;DHT22;58882;52.170;5.386;2022-10-16T00:47:44;17.80;58.50
70807;DHT22;58882;52.170;5.386;2022-10-16T00:50:33;17.80;58.60
70807;DHT22;58882;52.170;5.386;2022-10-16T00:53:02;17.80;58.50
70807;DHT22;58882;52.170;5.386;2022-10-16T00:55:29;17.80;58.50
70807;DHT22;58882;52.170;5.386;2022-10-16T00:57:57;17.70;58.50
70807;DHT22;58882;52.170;5.386;2022-10-16T01:00:26;17.80;58.60
70807;DHT22;58882;52.170;5.386;2022-10-16T01:02:56;17.70;58.70
70807;DHT22;58882;52.170;5.386;2022-10-16T01:05:41;17.70;58.80
70807;DHT22;58882;52.170;5.386;2022-10-16T01:08:39;17.70;58.80
70807;DHT22;58882;52.170;5.386;2022-10-16T01:11:34;17.70;58.90
70807;DHT22;58882;52.170;5.386;2022-10-16T01:14:19;17.70;60.00
70807;DHT22;58882;52.170;5.386;2022-10-16T01:17:02;17.70;59.00
70807;DHT22;58882;52.170;5.386;2022-10-16T01:22:25;17.70;59.10
70807;DHT22;58882;52.170;5.386;2022-10-16T01:25:00;17.70;59.10
70807;DHT22;58882;52.170;5.386;2022-10-16T01:27:31;17.70;59.20
70807;DHT22;58882;52.170;5.386;2022-10-16T01:30:17;17.70;59.30
70807;DHT22;58882;52.170;5.386;2022-10-16T01:32:50;17.70;59.50
70807;DHT22;58882;52.170;5.386;2022-10-16T01:35:32;17.70;59.50
70807;DHT22;58882;52.170;5.386;2022-10-16T01:38:11;17.70;59.60
70807;DHT22;58882;52.170;5.386;2022-10-16T01:40:44;17.70;59.60
70807;DHT22;58882;52.170;5.386;2022-10-16T01:43:20;17.70;60.50
70807;DHT22;58882;52.170;5.386;2022-10-16T01:45:49;17.70;59.70
70807;DHT22;58882;52.170;5.386;2022-10-16T01:48:19;17.70;59.80
70807;DHT22;58882;52.170;5.386;2022-10-16T01:50:59;17.70;59.70
70807;DHT22;58882;52.170;5.386;2022-10-16T01:53:27;17.70;59.80
70807;DHT22;58882;52.170;5.386;2022-10-16T01:55:55;17.80;59.90
70807;DHT22;58882;52.170;5.386;2022-10-16T01:58:24;17.80;59.90
70807;DHT22;58882;52.170;5.386;2022-10-16T02:00:52;17.80;60.00
70807;DHT22;58882;52.170;5.386;2022-10-16T02:03:22;17.80;60.00
70807;DHT22;58882;52.170;5.386;2022-10-16T02:05:55;17.80;60.10
70807;DHT22;58882;52.170;5.386;2022-10-16T02:08:24;17.80;60.20
70807;DHT22;58882;52.170;5.386;2022-10-16T02:10:52;17.80;60.10
70807;DHT22;58882;52.170;5.386;2022-10-16T02:13:26;17.80;60.00
70807;DHT22;58882;52.170;5.386;2022-10-16T02:15:54;17.80;60.10
70807;DHT22;58882;52.170;5.386;2022-10-16T02:18:21;17.80;60.00
70807;DHT22;58882;52.170;5.386;2022-10-16T02:20:59;17.80;60.20
70807;DHT22;58882;52.170;5.386;2022-10-16T02:23:45;17.80;60.10
70807;DHT22;58882;52.170;5.386;2022-10-16T02:26:19;17.80;60.10
70807;DHT22;58882;52.170;5.386;2022-10-16T02:28:52;17.80;60.20
70807;DHT22;58882;52.170;5.386;2022-10-16T02:31:28;17.80;60.30
70807;DHT22;58882;52.170;5.386;2022-10-16T02:33:58;17.80;60.30
70807;DHT22;58882;52.170;5.386;2022-10-16T02:36:26;17.80;60.40
70807;DHT22;58882;52.170;5.386;2022-10-16T02:38:53;17.70;60.40
70807;DHT22;58882;52.170;5.386;2022-10-16T02:41:22;17.70;60.40
70807;DHT22;58882;52.170;5.386;2022-10-16T02:43:49;17.70;60.50
70807;DHT22;58882;52.170;5.386;2022-10-16T02:46:17;17.70;60.50
70807;DHT22;58882;52.170;5.386;2022-10-16T02:48:44;17.70;60.50
70807;DHT22;58882;52.170;5.386;2022-10-16T02:51:11;17.70;60.50
70807;DHT22;58882;52.170;5.386;2022-10-16T02:53:38;17.70;60.60
70807;DHT22;58882;52.170;5.386;2022-10-16T02:56:05;17.70;60.60
70807;DHT22;58882;52.170;5.386;2022-10-16T02:58:31;17.70;60.70
70807;DHT22;58882;52.170;5.386;2022-10-16T03:00:59;17.70;60.80
70807;DHT22;58882;52.170;5.386;2022-10-16T03:03:26;17.70;60.90
70807;DHT22;58882;52.170;5.386;2022-10-16T03:05:53;17.70;60.90
70807;DHT22;58882;52.170;5.386;2022-10-16T03:08:19;17.70;60.90
70807;DHT22;58882;52.170;5.386;2022-10-16T03:10:51;17.70;61.00
70807;DHT22;58882;52.170;5.386;2022-10-16T03:13:18;17.60;61.00
70807;DHT22;58882;52.170;5.386;2022-10-16T03:15:47;17.70;61.00
70807;DHT22;58882;52.170;5.386;2022-10-16T03:18:14;17.70;61.10
70807;DHT22;58882;52.170;5.386;2022-10-16T03:20:43;17.70;61.30
70807;DHT22;58882;52.170;5.386;2022-10-16T03:23:09;17.70;61.20
70807;DHT22;58882;52.170;5.386;2022-10-16T03:25:37;17.70;61.10
70807;DHT22;58882;52.170;5.386;2022-10-16T03:28:04;17.70;61.10
70807;DHT22;58882;52.170;5.386;2022-10-16T03:30:30;17.70;61.10
70807;DHT22;58882;52.170;5.386;2022-10-16T03:32:57;17.70;61.10
70807;DHT22;58882;52.170;5.386;2022-10-16T03:35:24;17.70;61.20
70807;DHT22;58882;52.170;5.386;2022-10-16T03:37:51;17.70;61.30
70807;DHT22;58882;52.170;5.386;2022-10-16T03:40:19;17.70;61.40
70807;DHT22;58882;52.170;5.386;2022-10-16T03:42:46;17.70;61.40
70807;DHT22;58882;52.170;5.386;2022-10-16T03:45:13;17.70;61.40
70807;DHT22;58882;52.170;5.386;2022-10-16T03:47:39;17.70;61.40
70807;DHT22;58882;52.170;5.386;2022-10-16T03:50:07;17.60;61.30
70807;DHT22;58882;52.170;5.386;2022-10-16T03:52:34;17.70;61.50
70807;DHT22;58882;52.170;5.386;2022-10-16T03:55:00;17.60;61.40
70807;DHT22;58882;52.170;5.386;2022-10-16T03:57:27;17.60;61.40
70807;DHT22;58882;52.170;5.386;2022-10-16T03:59:54;17.60;61.50
70807;DHT22;58882;52.170;5.386;2022-10-16T04:02:21;17.60;61.40
70807;DHT22;58882;52.170;5.386;2022-10-16T04:04:48;17.60;61.50
70807;DHT22;58882;52.170;5.386;2022-10-16T04:07:15;17.60;61.50
70807;DHT22;58882;52.170;5.386;2022-10-16T04:09:41;17.60;61.50
70807;DHT22;58882;52.170;5.386;2022-10-16T04:12:08;17.60;61.50
70807;DHT22;58882;52.170;5.386;2022-10-16T04:14:35;17.60;61.50
70807;DHT22;58882;52.170;5.386;2022-10-16T04:17:02;17.60;61.50
70807;DHT22;58882;52.170;5.386;2022-10-16T04:19:29;17.60;61.70
70807;DHT22;58882;52.170;5.386;2022-10-16T04:21:55;17.60;61.60
70807;DHT22;58882;52.170;5.386;2022-10-16T04:24:22;17.60;61.50
70807;DHT22;58882;52.170;5.386;2022-10-16T04:26:49;17.60;61.50
70807;DHT22;58882;52.170;5.386;2022-10-16T04:29:15;17.60;61.50
70807;DHT22;58882;52.170;5.386;2022-10-16T04:31:42;17.60;61.70
70807;DHT22;58882;52.170;5.386;2022-10-16T04:34:09;17.50;61.70
70807;DHT22;58882;52.170;5.386;2022-10-16T04:36:36;17.60;61.80
70807;DHT22;58882;52.170;5.386;2022-10-16T04:39:03;17.60;61.80
70807;DHT22;58882;52.170;5.386;2022-10-16T04:41:29;17.50;61.60
70807;DHT22;58882;52.170;5.386;2022-10-16T04:43:56;17.50;61.70
70807;DHT22;58882;52.170;5.386;2022-10-16T04:46:23;17.50;61.80
70807;DHT22;58882;52.170;5.386;2022-10-16T04:48:50;17.50;61.80
70807;DHT22;58882;52.170;5.386;2022-10-16T04:51:17;17.50;61.80
70807;DHT22;58882;52.170;5.386;2022-10-16T04:53:45;17.50;61.90
70807;DHT22;58882;52.170;5.386;2022-10-16T04:56:12;17.50;61.90
70807;DHT22;58882;52.170;5.386;2022-10-16T04:58:38;17.50;61.90
70807;DHT22;58882;52.170;5.386;2022-10-16T05:01:05;17.50;61.90
70807;DHT22;58882;52.170;5.386;2022-10-16T05:03:32;17.50;61.90
70807;DHT22;58882;52.170;5.386;2022-10-16T05:05:59;17.50;62.00
70807;DHT22;58882;52.170;5.386;2022-10-16T05:08:25;17.50;62.20
70807;DHT22;58882;52.170;5.386;2022-10-16T05:10:52;17.50;62.00
70807;DHT22;58882;52.170;5.386;2022-10-16T05:13:20;17.50;62.00
70807;DHT22;58882;52.170;5.386;2022-10-16T05:15:47;17.50;62.10
70807;DHT22;58882;52.170;5.386;2022-10-16T05:18:15;17.50;62.20
70807;DHT22;58882;52.170;5.386;2022-10-16T05:20:42;17.50;62.10
70807;DHT22;58882;52.170;5.386;2022-10-16T05:23:09;17.50;62.00
70807;DHT22;58882;52.170;5.386;2022-10-16T05:25:52;17.50;62.00
70807;DHT22;58882;52.170;5.386;2022-10-16T05:28:20;17.50;62.10
70807;DHT22;58882;52.170;5.386;2022-10-16T05:30:47;17.50;62.00
70807;DHT22;58882;52.170;5.386;2022-10-16T05:33:14;17.50;62.10
70807;DHT22;58882;52.170;5.386;2022-10-16T05:35:40;17.50;62.20
70807;DHT22;58882;52.170;5.386;2022-10-16T05:38:07;17.50;62.30
70807;DHT22;58882;52.170;5.386;2022-10-16T05:40:34;17.50;62.30
70807;DHT22;58882;52.170;5.386;2022-10-16T05:43:01;17.50;62.30
70807;DHT22;58882;52.170;5.386;2022-10-16T05:45:28;17.40;62.20
70807;DHT22;58882;52.170;5.386;2022-10-16T05:47:55;17.50;63.20
70807;DHT22;58882;52.170;5.386;2022-10-16T05:50:22;17.50;62.30
70807;DHT22;58882;52.170;5.386;2022-10-16T05:52:48;17.40;62.20
70807;DHT22;58882;52.170;5.386;2022-10-16T05:55:15;17.50;63.20
70807;DHT22;58882;52.170;5.386;2022-10-16T05:57:42;17.50;63.40
70807;DHT22;58882;52.170;5.386;2022-10-16T06:00:09;17.50;62.30
70807;DHT22;58882;52.170;5.386;2022-10-16T06:02:39;17.50;62.30
70807;DHT22;58882;52.170;5.386;2022-10-16T06:05:06;17.50;63.20
70807;DHT22;58882;52.170;5.386;2022-10-16T06:07:36;17.50;62.30
70807;DHT22;58882;52.170;5.386;2022-10-16T06:10:04;17.50;63.30
70807;DHT22;58882;52.170;5.386;2022-10-16T06:12:31;17.50;62.40
70807;DHT22;58882;52.170;5.386;2022-10-16T06:14:57;17.50;62.50
70807;DHT22;58882;52.170;5.386;2022-10-16T06:17:24;17.50;62.60
70807;DHT22;58882;52.170;5.386;2022-10-16T06:19:51;17.50;62.60
70807;DHT22;58882;52.170;5.386;2022-10-16T06:22:18;17.50;62.70
70807;DHT22;58882;52.170;5.386;2022-10-16T06:24:45;17.50;62.80
70807;DHT22;58882;52.170;5.386;2022-10-16T06:27:13;17.60;62.90
70807;DHT22;58882;52.170;5.386;2022-10-16T06:29:39;17.50;62.80
70807;DHT22;58882;52.170;5.386;2022-10-16T06:32:06;17.60;62.90
70807;DHT22;58882;52.170;5.386;2022-10-16T06:34:33;17.60;62.80
70807;DHT22;58882;52.170;5.386;2022-10-16T06:37:00;17.60;62.80
70807;DHT22;58882;52.170;5.386;2022-10-16T06:39:27;17.60;62.80
70807;DHT22;58882;52.170;5.386;2022-10-16T06:41:55;17.60;62.90
70807;DHT22;58882;52.170;5.386;2022-10-16T06:44:25;17.70;62.90
70807;DHT22;58882;52.170;5.386;2022-10-16T06:46:52;17.70;62.80
70807;DHT22;58882;52.170;5.386;2022-10-16T06:49:18;17.70;62.70
70807;DHT22;58882;52.170;5.386;2022-10-16T06:51:49;17.70;62.60
70807;DHT22;58882;52.170;5.386;2022-10-16T06:54:16;17.70;62.40
70807;DHT22;58882;52.170;5.386;2022-10-16T06:56:44;17.70;62.40
70807;DHT22;58882;52.170;5.386;2022-10-16T06:59:11;17.60;62.40
70807;DHT22;58882;52.170;5.386;2022-10-16T07:01:38;17.60;62.50
70807;DHT22;58882;52.170;5.386;2022-10-16T07:04:04;17.60;62.50
70807;DHT22;58882;52.170;5.386;2022-10-16T07:06:32;17.60;62.50
70807;DHT22;58882;52.170;5.386;2022-10-16T07:09:02;17.60;62.40
70807;DHT22;58882;52.170;5.386;2022-10-16T07:11:30;17.60;62.60
70807;DHT22;58882;52.170;5.386;2022-10-16T07:13:57;17.60;62.50
70807;DHT22;58882;52.170;5.386;2022-10-16T07:16:26;17.60;62.40
70807;DHT22;58882;52.170;5.386;2022-10-16T07:18:55;17.60;62.40
70807;DHT22;58882;52.170;5.386;2022-10-16T07:21:29;17.70;62.60
70807;DHT22;58882;52.170;5.386;2022-10-16T07:23:58;17.70;62.50
70807;DHT22;58882;52.170;5.386;2022-10-16T07:26:27;17.70;62.30
70807;DHT22;58882;52.170;5.386;2022-10-16T07:28:54;17.70;62.30
70807;DHT22;58882;52.170;5.386;2022-10-16T07:31:22;17.70;62.10
70807;DHT22;58882;52.170;5.386;2022-10-16T07:33:50;17.80;62.10
70807;DHT22;58882;52.170;5.386;2022-10-16T07:36:19;17.80;62.10
70807;DHT22;58882;52.170;5.386;2022-10-16T07:38:47;17.80;62.00
70807;DHT22;58882;52.170;5.386;2022-10-16T07:41:17;17.80;61.90
70807;DHT22;58882;52.170;5.386;2022-10-16T07:43:47;17.90;61.60
70807;DHT22;58882;52.170;5.386;2022-10-16T07:46:16;18.00;61.40
70807;DHT22;58882;52.170;5.386;2022-10-16T07:48:43;18.00;61.20
70807;DHT22;58882;52.170;5.386;2022-10-16T07:51:16;18.10;61.10
70807;DHT22;58882;52.170;5.386;2022-10-16T07:53:43;18.20;61.00
70807;DHT22;58882;52.170;5.386;2022-10-16T07:56:10;18.30;61.60
70807;DHT22;58882;52.170;5.386;2022-10-16T07:58:38;18.40;60.60
70807;DHT22;58882;52.170;5.386;2022-10-16T08:01:07;18.60;60.40
70807;DHT22;58882;52.170;5.386;2022-10-16T08:03:35;19.10;59.80
70807;DHT22;58882;52.170;5.386;2022-10-16T08:06:02;19.60;58.80
70807;DHT22;58882;52.170;5.386;2022-10-16T08:08:30;20.10;57.70
70807;DHT22;58882;52.170;5.386;2022-10-16T08:10:56;20.60;56.50
70807;DHT22;58882;52.170;5.386;2022-10-16T08:13:23;21.10;55.40
70807;DHT22;58882;52.170;5.386;2022-10-16T08:15:50;21.50;54.30
70807;DHT22;58882;52.170;5.386;2022-10-16T08:18:17;21.80;53.50
70807;DHT22;58882;52.170;5.386;2022-10-16T08:20:43;22.10;52.80
70807;DHT22;58882;52.170;5.386;2022-10-16T08:23:11;22.40;52.00
70807;DHT22;58882;52.170;5.386;2022-10-16T08:25:40;22.70;51.30
70807;DHT22;58882;52.170;5.386;2022-10-16T08:28:09;22.90;50.60
70807;DHT22;58882;52.170;5.386;2022-10-16T08:30:36;23.00;50.30
70807;DHT22;58882;52.170;5.386;2022-10-16T08:33:04;23.20;50.00
70807;DHT22;58882;52.170;5.386;2022-10-16T08:35:31;23.20;50.50
70807;DHT22;58882;52.170;5.386;2022-10-16T08:37:57;23.10;50.60
70807;DHT22;58882;52.170;5.386;2022-10-16T08:40:27;23.20;49.70
70807;DHT22;58882;52.170;5.386;2022-10-16T08:48:53;23.60;48.60
70807;DHT22;58882;52.170;5.386;2022-10-16T08:51:32;23.90;48.00
70807;DHT22;58882;52.170;5.386;2022-10-16T08:54:04;24.00;47.50
70807;DHT22;58882;52.170;5.386;2022-10-16T08:56:31;24.20;47.00
70807;DHT22;58882;52.170;5.386;2022-10-16T08:59:00;24.40;46.60
70807;DHT22;58882;52.170;5.386;2022-10-16T09:01:41;24.60;46.10
70807;DHT22;58882;52.170;5.386;2022-10-16T09:04:32;24.70;45.50
70807;DHT22;58882;52.170;5.386;2022-10-16T09:07:18;24.80;45.30
70807;DHT22;58882;52.170;5.386;2022-10-16T09:13:09;25.10;44.80
70807;DHT22;58882;52.170;5.386;2022-10-16T09:19:09;25.60;43.90
70807;DHT22;58882;52.170;5.386;2022-10-16T09:21:44;25.80;43.30
70807;DHT22;58882;52.170;5.386;2022-10-16T09:24:17;26.00;43.00
70807;DHT22;58882;52.170;5.386;2022-10-16T09:26:46;26.10;42.60
70807;DHT22;58882;52.170;5.386;2022-10-16T09:29:18;26.20;42.20
70807;DHT22;58882;52.170;5.386;2022-10-16T09:31:50;26.30;41.90
70807;DHT22;58882;52.170;5.386;2022-10-16T09:34:30;26.30;41.90
70807;DHT22;58882;52.170;5.386;2022-10-16T09:37:05;26.30;41.80
70807;DHT22;58882;52.170;5.386;2022-10-16T09:39:49;26.40;42.60
70807;DHT22;58882;52.170;5.386;2022-10-16T09:42:23;26.40;41.20
70807;DHT22;58882;52.170;5.386;2022-10-16T09:44:53;26.20;41.80
70807;DHT22;58882;52.170;5.386;2022-10-16T09:47:28;26.20;41.80
70807;DHT22;58882;52.170;5.386;2022-10-16T09:50:20;26.20;41.80
70807;DHT22;58882;52.170;5.386;2022-10-16T09:52:48;26.30;41.50
70807;DHT22;58882;52.170;5.386;2022-10-16T09:55:17;26.30;41.30
70807;DHT22;58882;52.170;5.386;2022-10-16T09:57:54;26.20;41.30
70807;DHT22;58882;52.170;5.386;2022-10-16T10:00:24;26.00;41.70
70807;DHT22;58882;52.170;5.386;2022-10-16T10:02:52;25.90;41.60
70807;DHT22;58882;52.170;5.386;2022-10-16T10:05:25;25.80;41.60
70807;DHT22;58882;52.170;5.386;2022-10-16T10:07:56;25.70;41.70
70807;DHT22;58882;52.170;5.386;2022-10-16T10:10:31;25.60;41.90
70807;DHT22;58882;52.170;5.386;2022-10-16T10:12:58;25.60;42.00
70807;DHT22;58882;52.170;5.386;2022-10-16T10:15:29;25.50;42.00
70807;DHT22;58882;52.170;5.386;2022-10-16T10:17:57;25.50;42.10
70807;DHT22;58882;52.170;5.386;2022-10-16T10:20:35;25.40;42.10
70807;DHT22;58882;52.170;5.386;2022-10-16T10:23:26;25.20;42.30
70807;DHT22;58882;52.170;5.386;2022-10-16T10:26:07;25.20;42.20
70807;DHT22;58882;52.170;5.386;2022-10-16T10:31:29;25.30;42.10
70807;DHT22;58882;52.170;5.386;2022-10-16T10:39:47;25.30;41.80
70807;DHT22;58882;52.170;5.386;2022-10-16T10:45:30;25.10;42.10
70807;DHT22;58882;52.170;5.386;2022-10-16T10:51:05;24.80;42.70
70807;DHT22;58882;52.170;5.386;2022-10-16T10:56:42;24.50;43.20
70807;DHT22;58882;52.170;5.386;2022-10-16T11:01:56;24.30;43.50
70807;DHT22;58882;52.170;5.386;2022-10-16T11:07:04;24.20;43.80
70807;DHT22;58882;52.170;5.386;2022-10-16T11:09:39;24.10;43.90
70807;DHT22;58882;52.170;5.386;2022-10-16T11:17:57;23.90;44.30
70807;DHT22;58882;52.170;5.386;2022-10-16T11:20:33;23.80;44.20
70807;DHT22;58882;52.170;5.386;2022-10-16T11:23:14;23.80;44.40
70807;DHT22;58882;52.170;5.386;2022-10-16T11:25:43;23.70;44.30
70807;DHT22;58882;52.170;5.386;2022-10-16T11:28:16;23.60;44.50
70807;DHT22;58882;52.170;5.386;2022-10-16T11:36:19;23.50;44.60
70807;DHT22;58882;52.170;5.386;2022-10-16T11:41:41;23.40;45.80
70807;DHT22;58882;52.170;5.386;2022-10-16T11:47:45;23.30;44.50
70807;DHT22;58882;52.170;5.386;2022-10-16T11:50:54;23.30;44.50
70807;DHT22;58882;52.170;5.386;2022-10-16T11:53:38;23.20;44.40
70807;DHT22;58882;52.170;5.386;2022-10-16T11:56:13;23.10;44.60
70807;DHT22;58882;52.170;5.386;2022-10-16T11:58:52;23.10;44.80
70807;DHT22;58882;52.170;5.386;2022-10-16T12:01:43;23.10;44.60
70807;DHT22;58882;52.170;5.386;2022-10-16T12:09:31;23.30;45.60
70807;DHT22;58882;52.170;5.386;2022-10-16T12:11:58;23.40;44.20
70807;DHT22;58882;52.170;5.386;2022-10-16T12:14:38;23.50;44.00
70807;DHT22;58882;52.170;5.386;2022-10-16T12:17:37;23.50;43.80
70807;DHT22;58882;52.170;5.386;2022-10-16T12:22:52;23.70;43.40
70807;DHT22;58882;52.170;5.386;2022-10-16T12:25:29;23.80;43.10
70807;DHT22;58882;52.170;5.386;2022-10-16T12:28:06;23.90;43.00
70807;DHT22;58882;52.170;5.386;2022-10-16T12:30:35;24.00;42.80
70807;DHT22;58882;52.170;5.386;2022-10-16T12:33:21;24.10;42.70
70807;DHT22;58882;52.170;5.386;2022-10-16T12:35:49;24.10;42.60
70807;DHT22;58882;52.170;5.386;2022-10-16T12:40:45;24.10;42.10
70807;DHT22;58882;52.170;5.386;2022-10-16T12:43:36;24.10;42.10
70807;DHT22;58882;52.170;5.386;2022-10-16T12:48:38;24.10;42.10
70807;DHT22;58882;52.170;5.386;2022-10-16T12:51:35;24.10;42.20
70807;DHT22;58882;52.170;5.386;2022-10-16T12:54:12;24.10;42.20
70807;DHT22;58882;52.170;5.386;2022-10-16T13:22:01;23.90;41.70
70807;DHT22;58882;52.170;5.386;2022-10-16T13:27:45;23.80;41.90
70807;DHT22;58882;52.170;5.386;2022-10-16T13:30:28;23.70;41.70
70807;DHT22;58882;52.170;5.386;2022-10-16T13:33:00;23.70;41.70
70807;DHT22;58882;52.170;5.386;2022-10-16T13:35:30;23.60;41.70
70807;DHT22;58882;52.170;5.386;2022-10-16T13:38:46;23.60;41.90
70807;DHT22;58882;52.170;5.386;2022-10-16T13:41:17;23.60;41.90
70807;DHT22;58882;52.170;5.386;2022-10-16T13:43:50;23.50;41.90
70807;DHT22;58882;52.170;5.386;2022-10-16T13:46:20;23.50;42.00
70807;DHT22;58882;52.170;5.386;2022-10-16T13:49:02;23.40;42.00
70807;DHT22;58882;52.170;5.386;2022-10-16T13:51:30;23.40;41.90
70807;DHT22;58882;52.170;5.386;2022-10-16T13:53:57;23.40;42.00
70807;DHT22;58882;52.170;5.386;2022-10-16T13:56:32;23.40;42.10
70807;DHT22;58882;52.170;5.386;2022-10-16T14:01:35;23.30;42.30
70807;DHT22;58882;52.170;5.386;2022-10-16T14:04:08;23.20;42.40
70807;DHT22;58882;52.170;5.386;2022-10-16T14:06:40;23.20;42.50
70807;DHT22;58882;52.170;5.386;2022-10-16T14:09:16;23.20;42.60
70807;DHT22;58882;52.170;5.386;2022-10-16T14:11:51;23.20;42.70
70807;DHT22;58882;52.170;5.386;2022-10-16T14:14:19;23.10;42.70
70807;DHT22;58882;52.170;5.386;2022-10-16T14:16:47;23.10;42.80
70807;DHT22;58882;52.170;5.386;2022-10-16T14:19:26;23.10;42.80
70807;DHT22;58882;52.170;5.386;2022-10-16T14:21:54;23.00;42.70
70807;DHT22;58882;52.170;5.386;2022-10-16T14:26:57;23.00;42.80
70807;DHT22;58882;52.170;5.386;2022-10-16T14:29:26;23.00;43.00
70807;DHT22;58882;52.170;5.386;2022-10-16T14:32:01;22.90;43.20
70807;DHT22;58882;52.170;5.386;2022-10-16T14:34:38;22.90;43.20
70807;DHT22;58882;52.170;5.386;2022-10-16T14:37:26;22.90;43.20
70807;DHT22;58882;52.170;5.386;2022-10-16T14:39:55;22.90;43.20
70807;DHT22;58882;52.170;5.386;2022-10-16T14:42:24;22.80;43.10
70807;DHT22;58882;52.170;5.386;2022-10-16T14:44:53;22.80;43.10
70807;DHT22;58882;52.170;5.386;2022-10-16T14:47:23;22.80;43.10
70807;DHT22;58882;52.170;5.386;2022-10-16T14:49:54;22.80;43.10
70807;DHT22;58882;52.170;5.386;2022-10-16T14:52:22;22.70;43.00
70807;DHT22;58882;52.170;5.386;2022-10-16T14:54:49;22.70;43.10
70807;DHT22;58882;52.170;5.386;2022-10-16T14:57:18;22.70;43.20
70807;DHT22;58882;52.170;5.386;2022-10-16T14:59:46;22.60;43.20
70807;DHT22;58882;52.170;5.386;2022-10-16T15:02:25;22.60;43.30
70807;DHT22;58882;52.170;5.386;2022-10-16T15:04:53;22.60;43.50
70807;DHT22;58882;52.170;5.386;2022-10-16T15:07:21;22.60;43.50
70807;DHT22;58882;52.170;5.386;2022-10-16T15:09:48;22.60;43.50
70807;DHT22;58882;52.170;5.386;2022-10-16T15:12:16;22.50;43.40
70807;DHT22;58882;52.170;5.386;2022-10-16T15:14:43;22.50;43.50
70807;DHT22;58882;52.170;5.386;2022-10-16T15:17:10;22.50;43.60
70807;DHT22;58882;52.170;5.386;2022-10-16T15:19:37;22.50;43.60
70807;DHT22;58882;52.170;5.386;2022-10-16T15:22:04;22.40;43.60
70807;DHT22;58882;52.170;5.386;2022-10-16T15:24:31;22.50;43.70
70807;DHT22;58882;52.170;5.386;2022-10-16T15:26:58;22.40;43.70
70807;DHT22;58882;52.170;5.386;2022-10-16T15:29:25;22.40;43.80
70807;DHT22;58882;52.170;5.386;2022-10-16T15:31:51;22.40;43.80
70807;DHT22;58882;52.170;5.386;2022-10-16T15:34:18;22.40;43.80
70807;DHT22;58882;52.170;5.386;2022-10-16T15:36:46;22.40;43.80
70807;DHT22;58882;52.170;5.386;2022-10-16T15:39:15;22.30;43.90
70807;DHT22;58882;52.170;5.386;2022-10-16T15:41:43;22.30;44.00
70807;DHT22;58882;52.170;5.386;2022-10-16T15:44:10;22.30;44.00
70807;DHT22;58882;52.170;5.386;2022-10-16T15:46:36;22.30;44.10
70807;DHT22;58882;52.170;5.386;2022-10-16T15:49:03;22.20;44.20
70807;DHT22;58882;52.170;5.386;2022-10-16T15:51:30;22.20;45.20
70807;DHT22;58882;52.170;5.386;2022-10-16T15:54:00;22.20;44.30
70807;DHT22;58882;52.170;5.386;2022-10-16T15:56:28;22.20;44.50
70807;DHT22;58882;52.170;5.386;2022-10-16T15:58:55;22.20;44.60
70807;DHT22;58882;52.170;5.386;2022-10-16T16:01:23;22.20;44.70
70807;DHT22;58882;52.170;5.386;2022-10-16T16:03:54;22.10;44.70
70807;DHT22;58882;52.170;5.386;2022-10-16T16:06:22;22.10;44.70
70807;DHT22;58882;52.170;5.386;2022-10-16T16:08:51;22.10;44.80
70807;DHT22;58882;52.170;5.386;2022-10-16T16:11:19;22.10;44.90
70807;DHT22;58882;52.170;5.386;2022-10-16T16:13:46;22.10;44.90
70807;DHT22;58882;52.170;5.386;2022-10-16T16:16:17;22.10;45.20
70807;DHT22;58882;52.170;5.386;2022-10-16T16:18:44;22.00;45.20
70807;DHT22;58882;52.170;5.386;2022-10-16T16:21:14;22.00;45.20
70807;DHT22;58882;52.170;5.386;2022-10-16T16:23:40;22.00;45.40
70807;DHT22;58882;52.170;5.386;2022-10-16T16:28:53;22.00;45.40
70807;DHT22;58882;52.170;5.386;2022-10-16T16:31:23;22.00;45.40
70807;DHT22;58882;52.170;5.386;2022-10-16T16:33:50;21.90;45.40
70807;DHT22;58882;52.170;5.386;2022-10-16T16:36:18;21.90;45.40
70807;DHT22;58882;52.170;5.386;2022-10-16T16:38:46;21.90;45.60
70807;DHT22;58882;52.170;5.386;2022-10-16T16:43:39;21.90;45.90
70807;DHT22;58882;52.170;5.386;2022-10-16T16:46:06;21.80;45.90
70807;DHT22;58882;52.170;5.386;2022-10-16T16:48:34;21.80;46.00
70807;DHT22;58882;52.170;5.386;2022-10-16T16:51:06;21.80;46.10
70807;DHT22;58882;52.170;5.386;2022-10-16T16:53:34;21.80;46.20
70807;DHT22;58882;52.170;5.386;2022-10-16T16:56:02;21.70;46.20
70807;DHT22;58882;52.170;5.386;2022-10-16T16:58:31;21.70;46.40
70807;DHT22;58882;52.170;5.386;2022-10-16T17:00:58;21.70;46.50
70807;DHT22;58882;52.170;5.386;2022-10-16T17:03:46;21.70;46.60
70807;DHT22;58882;52.170;5.386;2022-10-16T17:06:14;21.60;46.50
70807;DHT22;58882;52.170;5.386;2022-10-16T17:08:42;21.60;46.70
70807;DHT22;58882;52.170;5.386;2022-10-16T17:11:20;21.60;46.80
70807;DHT22;58882;52.170;5.386;2022-10-16T17:13:49;21.50;46.80
70807;DHT22;58882;52.170;5.386;2022-10-16T17:16:28;21.50;46.90
70807;DHT22;58882;52.170;5.386;2022-10-16T17:18:55;21.40;46.90
70807;DHT22;58882;52.170;5.386;2022-10-16T17:21:21;21.40;47.00
70807;DHT22;58882;52.170;5.386;2022-10-16T17:23:51;21.40;47.00
70807;DHT22;58882;52.170;5.386;2022-10-16T17:26:18;21.40;47.10
70807;DHT22;58882;52.170;5.386;2022-10-16T17:28:45;21.40;47.10
70807;DHT22;58882;52.170;5.386;2022-10-16T17:31:17;21.30;47.10
70807;DHT22;58882;52.170;5.386;2022-10-16T17:33:45;21.30;47.20
70807;DHT22;58882;52.170;5.386;2022-10-16T17:36:13;21.30;47.30
70807;DHT22;58882;52.170;5.386;2022-10-16T17:38:41;21.30;47.30